sensor_id;sensor_type;location;lat;lon;timestamp;pressure;altitude;pressure_sealevel;temperature;humidity
71903;BME280;59778;50.310;18.780;2022-07-30T00:10:49;98643.13;;;19.66;81.97
71903;BME280;59778;50.310;18.780;2022-07-30T00:26:11;98642.75;;;19.41;83.83
71903;BME280;59778;50.310;18.780;2022-07-30T00:41:32;98639.63;;;19.32;84.32
71903;BME280;59778;50.310;18.780;2022-07-30T00:56:53;98621.69;;;19.29;83.94
71903;BME280;59778;50.310;18.780;2022-07-30T01:12:16;98606.38;;;19.17;84.21
71903;BME280;59778;50.310;18.780;2022-07-30T01:27:43;98578.00;;;18.78;85.71
71903;BME280;59778;50.310;18.780;2022-07-30T01:43:06;98567.25;;;18.43;86.82
71903;BME280;59778;50.310;18.780;2022-07-30T01:58:31;98565.63;;;18.59;85.83
71903;BME280;59778;50.310;18.780;2022-07-30T02:13:56;98556.84;;;18.62;86.23
71903;BME280;59778;50.310;18.780;2022-07-30T02:29:18;98577.19;;;18.44;87.65
71903;BME280;59778;50.310;18.780;2022-07-30T02:44:42;98578.78;;;18.57;86.95
71903;BME280;59778;50.310;18.780;2022-07-30T03:00:05;98563.06;;;18.52;87.35
71903;BME280;59778;50.310;18.780;2022-07-30T03:15:27;98548.44;;;18.35;88.39
71903;BME280;59778;50.310;18.780;2022-07-30T03:30:50;98541.13;;;18.24;88.92
71903;BME280;59778;50.310;18.780;2022-07-30T03:46:12;98542.75;;;18.42;88.59
71903;BME280;59778;50.310;18.780;2022-07-30T04:01:34;98581.09;;;18.65;87.79
71903;BME280;59778;50.310;18.780;2022-07-30T04:17:01;98575.97;;;18.68;87.99
71903;BME280;59778;50.310;18.780;2022-07-30T04:32:23;98568.41;;;18.80;88.91
71903;BME280;59778;50.310;18.780;2022-07-30T04:47:45;98570.72;;;19.27;88.30
71903;BME280;59778;50.310;18.780;2022-07-30T05:03:07;98564.19;;;19.33;86.33
71903;BME280;59778;50.310;18.780;2022-07-30T05:18:31;98573.16;;;19.45;84.90
71903;BME280;59778;50.310;18.780;2022-07-30T05:33:52;98573.59;;;19.37;85.15
71903;BME280;59778;50.310;18.780;2022-07-30T05:49:13;98558.66;;;19.76;84.15
71903;BME280;59778;50.310;18.780;2022-07-30T06:04:35;98565.22;;;19.97;83.39
71903;BME280;59778;50.310;18.780;2022-07-30T06:19:58;98569.72;;;20.08;81.90
71903;BME280;59778;50.310;18.780;2022-07-30T06:35:20;98559.94;;;20.22;80.66
71903;BME280;59778;50.310;18.780;2022-07-30T06:50:41;98541.53;;;20.65;81.87
71903;BME280;59778;50.310;18.780;2022-07-30T07:06:02;98524.78;;;21.34;79.44
71903;BME280;59778;50.310;18.780;2022-07-30T07:21:25;98519.41;;;21.89;75.32
71903;BME280;59778;50.310;18.780;2022-07-30T07:36:46;98528.31;;;22.22;73.90
71903;BME280;59778;50.310;18.780;2022-07-30T07:52:07;98520.03;;;22.06;73.91
71903;BME280;59778;50.310;18.780;2022-07-30T08:07:28;98513.88;;;22.90;72.86
71903;BME280;59778;50.310;18.780;2022-07-30T08:22:50;98499.06;;;23.79;67.64
71903;BME280;59778;50.310;18.780;2022-07-30T08:38:12;98502.44;;;23.71;67.98
71903;BME280;59778;50.310;18.780;2022-07-30T08:53:34;98486.25;;;24.27;64.82
71903;BME280;59778;50.310;18.780;2022-07-30T09:08:56;98478.06;;;24.07;64.38
71903;BME280;59778;50.310;18.780;2022-07-30T09:24:17;98470.84;;;24.98;61.19
71903;BME280;59778;50.310;18.780;2022-07-30T09:39:40;98479.75;;;25.18;58.44
71903;BME280;59778;50.310;18.780;2022-07-30T09:55:01;98468.66;;;25.37;57.63
71903;BME280;59778;50.310;18.780;2022-07-30T10:10:27;98449.13;;;25.42;59.85
71903;BME280;59778;50.310;18.780;2022-07-30T10:25:49;98462.88;;;24.91;59.86
71903;BME280;59778;50.310;18.780;2022-07-30T10:56:31;98465.66;;;23.61;64.42
71903;BME280;59778;50.310;18.780;2022-07-30T11:11:52;98462.03;;;23.01;67.73
71903;BME280;59778;50.310;18.780;2022-07-30T11:43:31;98479.31;;;21.72;80.80
71903;BME280;59778;50.310;18.780;2022-07-30T11:59:03;98495.53;;;21.43;86.17
71903;BME280;59778;50.310;18.780;2022-07-30T12:14:24;98499.94;;;21.39;85.13
71903;BME280;59778;50.310;18.780;2022-07-30T12:29:45;98499.91;;;21.24;87.10
71903;BME280;59778;50.310;18.780;2022-07-30T12:45:33;98502.94;;;20.70;88.24
71903;BME280;59778;50.310;18.780;2022-07-30T13:00:54;98482.25;;;20.73;89.60
71903;BME280;59778;50.310;18.780;2022-07-30T13:16:16;98468.81;;;20.96;88.42
71903;BME280;59778;50.310;18.780;2022-07-30T13:31:39;98451.00;;;21.19;85.97
71903;BME280;59778;50.310;18.780;2022-07-30T13:47:00;98437.59;;;20.86;88.21
71903;BME280;59778;50.310;18.780;2022-07-30T14:02:22;98426.75;;;20.74;88.33
71903;BME280;59778;50.310;18.780;2022-07-30T14:17:43;98408.06;;;20.91;89.87
71903;BME280;59778;50.310;18.780;2022-07-30T14:33:04;98396.38;;;20.74;89.72
71903;BME280;59778;50.310;18.780;2022-07-30T14:48:25;98399.81;;;20.39;89.57
71903;BME280;59778;50.310;18.780;2022-07-30T15:03:46;98403.56;;;19.86;91.41
71903;BME280;59778;50.310;18.780;2022-07-30T15:19:08;98409.66;;;19.56;92.87
71903;BME280;59778;50.310;18.780;2022-07-30T15:34:29;98413.22;;;19.57;93.49
71903;BME280;59778;50.310;18.780;2022-07-30T15:49:53;98402.13;;;19.47;92.94
71903;BME280;59778;50.310;18.780;2022-07-30T16:05:15;98408.56;;;19.30;93.89
71903;BME280;59778;50.310;18.780;2022-07-30T16:20:36;98414.59;;;19.27;95.06
71903;BME280;59778;50.310;18.780;2022-07-30T16:35:57;98394.59;;;18.89;95.03
71903;BME280;59778;50.310;18.780;2022-07-30T16:51:18;98408.56;;;18.82;94.63
71903;BME280;59778;50.310;18.780;2022-07-30T17:06:39;98431.97;;;18.63;95.01
71903;BME280;59778;50.310;18.780;2022-07-30T17:22:02;98435.94;;;18.33;95.09
71903;BME280;59778;50.310;18.780;2022-07-30T17:37:23;98432.97;;;18.18;95.84
71903;BME280;59778;50.310;18.780;2022-07-30T17:52:44;98429.34;;;18.13;96.15
71903;BME280;59778;50.310;18.780;2022-07-30T18:08:05;98419.94;;;18.09;95.76
71903;BME280;59778;50.310;18.780;2022-07-30T18:23:26;98418.09;;;17.98;96.35
71903;BME280;59778;50.310;18.780;2022-07-30T18:38:47;98426.53;;;17.58;96.89
71903;BME280;59778;50.310;18.780;2022-07-30T18:54:09;98418.78;;;17.43;96.82
71903;BME280;59778;50.310;18.780;2022-07-30T19:09:30;98426.88;;;17.33;97.17
71903;BME280;59778;50.310;18.780;2022-07-30T19:24:51;98422.34;;;17.10;97.90
71903;BME280;59778;50.310;18.780;2022-07-30T19:40:12;98413.59;;;17.13;98.80
71903;BME280;59778;50.310;18.780;2022-07-30T19:55:34;98405.81;;;17.22;97.90
71903;BME280;59778;50.310;18.780;2022-07-30T20:10:57;98394.44;;;17.02;98.00
71903;BME280;59778;50.310;18.780;2022-07-30T20:26:19;98397.13;;;17.13;97.06
71903;BME280;59778;50.310;18.780;2022-07-30T20:41:40;98396.91;;;16.86;98.06
71903;BME280;59778;50.310;18.780;2022-07-30T20:57:01;98366.28;;;16.78;98.52
71903;BME280;59778;50.310;18.780;2022-07-30T21:12:24;98358.13;;;16.83;99.00
71903;BME280;59778;50.310;18.780;2022-07-30T21:27:45;98379.66;;;16.74;99.98
71903;BME280;59778;50.310;18.780;2022-07-30T21:43:06;98365.28;;;16.84;100.00
71903;BME280;59778;50.310;18.780;2022-07-30T21:58:27;98345.06;;;16.73;99.68
71903;BME280;59778;50.310;18.780;2022-07-30T22:13:48;98346.00;;;16.79;99.38
71903;BME280;59778;50.310;18.780;2022-07-30T22:29:09;98333.22;;;16.84;99.27
71903;BME280;59778;50.310;18.780;2022-07-30T22:44:30;98319.06;;;16.76;98.74
71903;BME280;59778;50.310;18.780;2022-07-30T22:59:52;98314.34;;;16.60;99.13
71903;BME280;59778;50.310;18.780;2022-07-30T23:15:13;98305.28;;;16.71;98.48
71903;BME280;59778;50.310;18.780;2022-07-30T23:30:34;98284.97;;;16.72;99.55
71903;BME280;59778;50.310;18.780;2022-07-30T23:45:56;98273.09;;;16.66;99.15
